Ashiya Air Base, Japan

3:41 AM JST on July 04, 2015 (GMT +0900)
Akama Station(JR KYUSHU RAILWAY) | | Change Station
CLOSE
Current Station
Personal Weather Station
Location: Munakata, FUKUOKA
Elevation: 33 ft
Nearby Weather Stations

Elev 33 ft 33.80 °N, 130.57 °E | Updated 4 seconds ago

Partly Cloudy
Partly Cloudy
71.2 °F
Feels Like 71.2 °F
N
0.0
Wind Variable Wind from East
Gusts 0.0 mph

Today
High -- | Low -- °F
--% Chance of Precip.
Yesterday
High -- | Low -- °F
Precip. -- in
5:11 AM 7:32 PM
Waning Gibbous, 96% visible
Pressure 29.74 in
Visibility 3.1 miles
Clouds Few 1500 ft
Dew Point 69 °F
Humidity 94%
Rainfall 0.00 in
Snow Depth Not available.
UV 0 out of 12
Pollen Not available.
Air Quality Not available.
Flu Activity Not available.
METAR RJFF 031830Z VRB01KT 5000 BR FEW015 BKN/// 23/20 Q1007 RMK 1CU015 A2975

More Conditions Fewer Conditions

Pressure 29.74 in
Visibility 3.1 miles
Clouds Few 1500 ft
Dew Point 69 °F
Humidity 94%
Rainfall 0.00 in
Snow Depth Not available.
UV 0 out of 12
Pollen Not available.
Air Quality Not available.
Flu Activity Not available.
METAR RJFF 031830Z VRB01KT 5000 BR FEW015 BKN/// 23/20 Q1007 RMK 1CU015 A2975

More Conditions Fewer Conditions

10-Day Weather Forecast

×

Almanac

Astronomy

Jul. 04, 2015 Rise Set
Actual Time
Civil Twilight
Nautical Twilight
Astronomical Twilight
Moon
Length of Visible Light
Length of Day
Tomorrow will be .
, % of the Moon is Illuminated

Today's Extremes

Country Highs Country Lows

Community

WunderPhotos

Upload Photos

1,834,737 photos uploaded!

WunderBlogs® & News

Nearby

Air Quality

  Air Quality AQ Index Pollutant
Not available.

Snow Depth

Station Depth Elevation

Earthquake Activity

City Distance Mag. Time & Date
Minimum magnitude displayed is 2.5.

Coastal Water Temperatures

Place Temperature

Stations

Nearby Weather Stations

Station Location Temp. Windchill Dew Point Humidity Wind Precip. Elev Updated Type